sensor_id;sensor_type;location;lat;lon;timestamp;P1;durP1;ratioP1;P2;durP2;ratioP2
65613;SDS011;52283;49.292;10.572;2023-05-21T00:00:25;10.73;;;8.43;;
65613;SDS011;52283;49.292;10.572;2023-05-21T00:02:52;12.07;;;8.82;;
65613;SDS011;52283;49.292;10.572;2023-05-21T00:05:19;14.40;;;8.98;;
65613;SDS011;52283;49.292;10.572;2023-05-21T00:07:45;11.73;;;8.85;;
65613;SDS011;52283;49.292;10.572;2023-05-21T00:10:12;12.63;;;9.13;;
65613;SDS011;52283;49.292;10.572;2023-05-21T00:12:38;12.13;;;9.35;;
65613;SDS011;52283;49.292;10.572;2023-05-21T00:15:07;12.27;;;9.02;;
65613;SDS011;52283;49.292;10.572;2023-05-21T00:17:34;11.05;;;8.32;;
65613;SDS011;52283;49.292;10.572;2023-05-21T00:20:01;11.07;;;9.27;;
65613;SDS011;52283;49.292;10.572;2023-05-21T00:22:29;13.02;;;9.15;;
65613;SDS011;52283;49.292;10.572;2023-05-21T00:24:57;12.23;;;9.00;;
65613;SDS011;52283;49.292;10.572;2023-05-21T00:27:23;12.35;;;8.80;;
65613;SDS011;52283;49.292;10.572;2023-05-21T00:29:50;11.40;;;8.68;;
65613;SDS011;52283;49.292;10.572;2023-05-21T00:32:18;13.75;;;9.05;;
65613;SDS011;52283;49.292;10.572;2023-05-21T00:34:45;10.52;;;8.23;;
65613;SDS011;52283;49.292;10.572;2023-05-21T00:37:11;10.20;;;8.30;;
65613;SDS011;52283;49.292;10.572;2023-05-21T00:39:39;14.93;;;8.73;;
65613;SDS011;52283;49.292;10.572;2023-05-21T00:42:05;13.88;;;9.10;;
65613;SDS011;52283;49.292;10.572;2023-05-21T00:44:32;12.00;;;8.45;;
65613;SDS011;52283;49.292;10.572;2023-05-21T00:46:59;13.55;;;9.75;;
65613;SDS011;52283;49.292;10.572;2023-05-21T00:49:27;13.45;;;8.55;;
65613;SDS011;52283;49.292;10.572;2023-05-21T00:51:54;13.77;;;8.48;;
65613;SDS011;52283;49.292;10.572;2023-05-21T00:54:21;11.18;;;8.57;;
65613;SDS011;52283;49.292;10.572;2023-05-21T00:56:49;12.65;;;8.13;;
65613;SDS011;52283;49.292;10.572;2023-05-21T00:59:16;11.32;;;8.27;;
65613;SDS011;52283;49.292;10.572;2023-05-21T01:01:43;11.32;;;8.93;;
65613;SDS011;52283;49.292;10.572;2023-05-21T01:04:10;12.57;;;8.95;;
65613;SDS011;52283;49.292;10.572;2023-05-21T01:06:38;11.75;;;8.85;;
65613;SDS011;52283;49.292;10.572;2023-05-21T01:09:06;13.75;;;8.75;;
65613;SDS011;52283;49.292;10.572;2023-05-21T01:11:36;10.82;;;9.23;;
65613;SDS011;52283;49.292;10.572;2023-05-21T01:14:05;14.20;;;9.40;;
65613;SDS011;52283;49.292;10.572;2023-05-21T01:16:33;13.38;;;9.02;;
65613;SDS011;52283;49.292;10.572;2023-05-21T01:19:02;10.07;;;8.05;;
65613;SDS011;52283;49.292;10.572;2023-05-21T01:21:30;10.50;;;8.45;;
65613;SDS011;52283;49.292;10.572;2023-05-21T01:24:01;11.93;;;8.90;;
65613;SDS011;52283;49.292;10.572;2023-05-21T01:26:29;10.18;;;8.55;;
65613;SDS011;52283;49.292;10.572;2023-05-21T01:28:57;11.55;;;8.40;;
65613;SDS011;52283;49.292;10.572;2023-05-21T01:31:25;12.18;;;8.70;;
65613;SDS011;52283;49.292;10.572;2023-05-21T01:33:55;10.65;;;8.57;;
65613;SDS011;52283;49.292;10.572;2023-05-21T01:36:28;12.38;;;8.18;;
65613;SDS011;52283;49.292;10.572;2023-05-21T01:41:28;10.00;;;8.68;;
65613;SDS011;52283;49.292;10.572;2023-05-21T01:43:59;10.27;;;8.00;;
65613;SDS011;52283;49.292;10.572;2023-05-21T01:46:29;12.20;;;8.48;;
65613;SDS011;52283;49.292;10.572;2023-05-21T01:48:57;10.57;;;8.13;;
65613;SDS011;52283;49.292;10.572;2023-05-21T01:51:24;11.05;;;8.00;;
65613;SDS011;52283;49.292;10.572;2023-05-21T01:53:52;12.48;;;8.40;;
65613;SDS011;52283;49.292;10.572;2023-05-21T01:56:18;14.82;;;9.05;;
65613;SDS011;52283;49.292;10.572;2023-05-21T01:58:48;11.65;;;8.80;;
65613;SDS011;52283;49.292;10.572;2023-05-21T02:01:14;12.32;;;8.27;;
65613;SDS011;52283;49.292;10.572;2023-05-21T02:03:41;12.43;;;8.65;;
65613;SDS011;52283;49.292;10.572;2023-05-21T02:06:07;11.00;;;8.27;;
65613;SDS011;52283;49.292;10.572;2023-05-21T02:08:34;11.88;;;8.68;;
65613;SDS011;52283;49.292;10.572;2023-05-21T02:11:02;9.98;;;8.23;;
65613;SDS011;52283;49.292;10.572;2023-05-21T02:13:29;12.85;;;8.43;;
65613;SDS011;52283;49.292;10.572;2023-05-21T02:15:57;12.50;;;8.50;;
65613;SDS011;52283;49.292;10.572;2023-05-21T02:18:25;10.43;;;7.43;;
65613;SDS011;52283;49.292;10.572;2023-05-21T02:20:53;11.00;;;8.15;;
65613;SDS011;52283;49.292;10.572;2023-05-21T02:23:19;11.48;;;8.80;;
65613;SDS011;52283;49.292;10.572;2023-05-21T02:25:46;9.93;;;7.93;;
65613;SDS011;52283;49.292;10.572;2023-05-21T02:28:12;11.75;;;7.95;;
65613;SDS011;52283;49.292;10.572;2023-05-21T02:30:39;10.07;;;8.50;;
65613;SDS011;52283;49.292;10.572;2023-05-21T02:33:07;14.18;;;8.63;;
65613;SDS011;52283;49.292;10.572;2023-05-21T02:35:38;10.63;;;8.82;;
65613;SDS011;52283;49.292;10.572;2023-05-21T02:38:05;12.27;;;9.25;;
65613;SDS011;52283;49.292;10.572;2023-05-21T02:40:33;14.23;;;9.15;;
65613;SDS011;52283;49.292;10.572;2023-05-21T02:42:59;13.27;;;9.18;;
65613;SDS011;52283;49.292;10.572;2023-05-21T02:45:27;11.38;;;8.55;;
65613;SDS011;52283;49.292;10.572;2023-05-21T02:47:53;9.75;;;8.15;;
65613;SDS011;52283;49.292;10.572;2023-05-21T02:50:21;13.38;;;9.00;;
65613;SDS011;52283;49.292;10.572;2023-05-21T02:52:47;14.38;;;10.23;;
65613;SDS011;52283;49.292;10.572;2023-05-21T02:55:14;12.57;;;8.57;;
65613;SDS011;52283;49.292;10.572;2023-05-21T02:57:40;11.20;;;9.15;;
65613;SDS011;52283;49.292;10.572;2023-05-21T03:00:07;13.77;;;9.48;;
65613;SDS011;52283;49.292;10.572;2023-05-21T03:02:35;15.35;;;9.30;;
65613;SDS011;52283;49.292;10.572;2023-05-21T03:05:02;13.13;;;9.40;;
65613;SDS011;52283;49.292;10.572;2023-05-21T03:07:30;14.30;;;10.45;;
65613;SDS011;52283;49.292;10.572;2023-05-21T03:09:57;12.93;;;9.50;;
65613;SDS011;52283;49.292;10.572;2023-05-21T03:12:23;14.75;;;9.90;;
65613;SDS011;52283;49.292;10.572;2023-05-21T03:14:50;13.50;;;10.48;;
65613;SDS011;52283;49.292;10.572;2023-05-21T03:17:16;15.05;;;10.27;;
65613;SDS011;52283;49.292;10.572;2023-05-21T03:19:43;14.32;;;9.68;;
65613;SDS011;52283;49.292;10.572;2023-05-21T03:22:09;15.38;;;10.85;;
65613;SDS011;52283;49.292;10.572;2023-05-21T03:24:37;14.52;;;10.43;;
65613;SDS011;52283;49.292;10.572;2023-05-21T03:27:05;16.75;;;10.05;;
65613;SDS011;52283;49.292;10.572;2023-05-21T03:29:32;11.90;;;9.43;;
65613;SDS011;52283;49.292;10.572;2023-05-21T03:31:59;13.20;;;9.70;;
65613;SDS011;52283;49.292;10.572;2023-05-21T03:34:26;18.75;;;9.77;;
65613;SDS011;52283;49.292;10.572;2023-05-21T03:36:52;13.15;;;9.38;;
65613;SDS011;52283;49.292;10.572;2023-05-21T03:39:19;14.38;;;9.60;;
65613;SDS011;52283;49.292;10.572;2023-05-21T03:41:47;14.57;;;10.38;;
65613;SDS011;52283;49.292;10.572;2023-05-21T03:44:13;14.50;;;10.82;;
65613;SDS011;52283;49.292;10.572;2023-05-21T03:46:40;13.50;;;10.18;;
65613;SDS011;52283;49.292;10.572;2023-05-21T03:49:06;14.07;;;11.27;;
65613;SDS011;52283;49.292;10.572;2023-05-21T03:51:33;17.45;;;11.20;;
65613;SDS011;52283;49.292;10.572;2023-05-21T03:54:00;13.55;;;10.20;;
65613;SDS011;52283;49.292;10.572;2023-05-21T03:56:26;16.17;;;10.68;;
65613;SDS011;52283;49.292;10.572;2023-05-21T03:58:54;16.55;;;11.20;;
65613;SDS011;52283;49.292;10.572;2023-05-21T04:01:20;16.92;;;10.77;;
65613;SDS011;52283;49.292;10.572;2023-05-21T04:03:47;15.93;;;10.68;;
65613;SDS011;52283;49.292;10.572;2023-05-21T04:06:13;16.58;;;11.27;;
65613;SDS011;52283;49.292;10.572;2023-05-21T04:08:40;14.32;;;10.27;;
65613;SDS011;52283;49.292;10.572;2023-05-21T04:11:08;13.68;;;9.63;;
65613;SDS011;52283;49.292;10.572;2023-05-21T04:13:35;15.32;;;10.90;;
65613;SDS011;52283;49.292;10.572;2023-05-21T04:16:02;15.30;;;10.82;;
65613;SDS011;52283;49.292;10.572;2023-05-21T04:18:32;14.90;;;9.93;;
65613;SDS011;52283;49.292;10.572;2023-05-21T04:20:59;13.00;;;9.98;;
65613;SDS011;52283;49.292;10.572;2023-05-21T04:23:26;12.98;;;9.75;;
65613;SDS011;52283;49.292;10.572;2023-05-21T04:25:52;11.48;;;8.95;;
65613;SDS011;52283;49.292;10.572;2023-05-21T04:28:19;10.45;;;8.88;;
65613;SDS011;52283;49.292;10.572;2023-05-21T04:30:45;14.77;;;9.95;;
65613;SDS011;52283;49.292;10.572;2023-05-21T04:33:15;11.57;;;9.57;;
65613;SDS011;52283;49.292;10.572;2023-05-21T04:35:44;13.02;;;9.15;;
65613;SDS011;52283;49.292;10.572;2023-05-21T04:38:13;12.73;;;8.93;;
65613;SDS011;52283;49.292;10.572;2023-05-21T04:40:43;12.38;;;9.27;;
65613;SDS011;52283;49.292;10.572;2023-05-21T04:43:10;15.80;;;9.93;;
65613;SDS011;52283;49.292;10.572;2023-05-21T04:45:36;11.05;;;8.55;;
65613;SDS011;52283;49.292;10.572;2023-05-21T04:48:04;12.43;;;9.57;;
65613;SDS011;52283;49.292;10.572;2023-05-21T04:50:33;12.60;;;9.13;;
65613;SDS011;52283;49.292;10.572;2023-05-21T04:52:59;13.02;;;9.35;;
65613;SDS011;52283;49.292;10.572;2023-05-21T04:55:25;11.38;;;9.40;;
65613;SDS011;52283;49.292;10.572;2023-05-21T04:57:52;13.40;;;9.68;;
65613;SDS011;52283;49.292;10.572;2023-05-21T05:00:19;17.30;;;9.60;;
65613;SDS011;52283;49.292;10.572;2023-05-21T05:02:46;16.20;;;9.55;;
65613;SDS011;52283;49.292;10.572;2023-05-21T05:05:12;13.52;;;9.95;;
65613;SDS011;52283;49.292;10.572;2023-05-21T05:07:40;16.30;;;10.45;;
65613;SDS011;52283;49.292;10.572;2023-05-21T05:10:07;15.52;;;10.30;;
65613;SDS011;52283;49.292;10.572;2023-05-21T05:12:34;12.13;;;9.57;;
65613;SDS011;52283;49.292;10.572;2023-05-21T05:15:00;12.48;;;9.70;;
65613;SDS011;52283;49.292;10.572;2023-05-21T05:17:27;16.80;;;10.25;;
65613;SDS011;52283;49.292;10.572;2023-05-21T05:19:53;11.02;;;9.15;;
65613;SDS011;52283;49.292;10.572;2023-05-21T05:22:20;12.80;;;9.88;;
65613;SDS011;52283;49.292;10.572;2023-05-21T05:24:47;11.70;;;9.40;;
65613;SDS011;52283;49.292;10.572;2023-05-21T05:27:14;14.07;;;10.32;;
65613;SDS011;52283;49.292;10.572;2023-05-21T05:29:41;13.68;;;9.85;;
65613;SDS011;52283;49.292;10.572;2023-05-21T05:32:08;13.75;;;8.90;;
65613;SDS011;52283;49.292;10.572;2023-05-21T05:34:35;13.38;;;10.02;;
65613;SDS011;52283;49.292;10.572;2023-05-21T05:37:02;13.02;;;8.95;;
65613;SDS011;52283;49.292;10.572;2023-05-21T05:39:28;13.20;;;10.40;;
65613;SDS011;52283;49.292;10.572;2023-05-21T05:41:56;11.80;;;9.18;;
65613;SDS011;52283;49.292;10.572;2023-05-21T05:44:23;16.90;;;9.45;;
65613;SDS011;52283;49.292;10.572;2023-05-21T05:46:49;16.35;;;10.40;;
65613;SDS011;52283;49.292;10.572;2023-05-21T05:49:16;10.30;;;9.20;;
65613;SDS011;52283;49.292;10.572;2023-05-21T05:51:42;16.33;;;11.63;;
65613;SDS011;52283;49.292;10.572;2023-05-21T05:54:09;12.10;;;9.02;;
65613;SDS011;52283;49.292;10.572;2023-05-21T05:56:35;13.95;;;10.25;;
65613;SDS011;52283;49.292;10.572;2023-05-21T05:59:03;12.65;;;9.77;;
65613;SDS011;52283;49.292;10.572;2023-05-21T06:01:29;14.23;;;10.18;;
65613;SDS011;52283;49.292;10.572;2023-05-21T06:03:56;11.27;;;9.77;;
65613;SDS011;52283;49.292;10.572;2023-05-21T06:06:22;25.33;;;10.95;;
65613;SDS011;52283;49.292;10.572;2023-05-21T06:08:48;15.00;;;10.75;;
65613;SDS011;52283;49.292;10.572;2023-05-21T06:11:15;15.55;;;11.15;;
65613;SDS011;52283;49.292;10.572;2023-05-21T06:13:42;17.60;;;12.00;;
65613;SDS011;52283;49.292;10.572;2023-05-21T06:16:10;17.13;;;10.77;;
65613;SDS011;52283;49.292;10.572;2023-05-21T06:18:37;15.40;;;11.30;;
65613;SDS011;52283;49.292;10.572;2023-05-21T06:21:04;17.73;;;11.68;;
65613;SDS011;52283;49.292;10.572;2023-05-21T06:23:30;15.32;;;10.55;;
65613;SDS011;52283;49.292;10.572;2023-05-21T06:25:57;15.20;;;10.68;;
65613;SDS011;52283;49.292;10.572;2023-05-21T06:28:23;15.77;;;11.80;;
65613;SDS011;52283;49.292;10.572;2023-05-21T06:30:49;14.48;;;10.13;;
65613;SDS011;52283;49.292;10.572;2023-05-21T06:33:17;12.32;;;9.98;;
65613;SDS011;52283;49.292;10.572;2023-05-21T06:35:44;14.27;;;10.38;;
65613;SDS011;52283;49.292;10.572;2023-05-21T06:38:10;17.23;;;9.82;;
65613;SDS011;52283;49.292;10.572;2023-05-21T06:40:37;11.85;;;10.18;;
65613;SDS011;52283;49.292;10.572;2023-05-21T06:43:03;14.00;;;10.13;;
65613;SDS011;52283;49.292;10.572;2023-05-21T06:45:30;15.18;;;10.40;;
65613;SDS011;52283;49.292;10.572;2023-05-21T06:47:56;14.35;;;10.48;;
65613;SDS011;52283;49.292;10.572;2023-05-21T06:50:24;16.48;;;10.45;;
65613;SDS011;52283;49.292;10.572;2023-05-21T06:52:50;10.85;;;9.52;;
65613;SDS011;52283;49.292;10.572;2023-05-21T06:55:17;12.90;;;9.90;;
65613;SDS011;52283;49.292;10.572;2023-05-21T06:57:43;15.10;;;10.32;;
65613;SDS011;52283;49.292;10.572;2023-05-21T07:00:10;15.50;;;9.20;;
65613;SDS011;52283;49.292;10.572;2023-05-21T07:02:38;14.13;;;9.57;;
65613;SDS011;52283;49.292;10.572;2023-05-21T07:05:04;11.63;;;9.50;;
65613;SDS011;52283;49.292;10.572;2023-05-21T07:07:32;13.13;;;9.73;;
65613;SDS011;52283;49.292;10.572;2023-05-21T07:09:59;12.15;;;9.48;;
65613;SDS011;52283;49.292;10.572;2023-05-21T07:12:26;11.88;;;9.25;;
65613;SDS011;52283;49.292;10.572;2023-05-21T07:14:52;12.48;;;9.98;;
65613;SDS011;52283;49.292;10.572;2023-05-21T07:17:19;15.75;;;9.75;;
65613;SDS011;52283;49.292;10.572;2023-05-21T07:19:45;16.10;;;10.00;;
65613;SDS011;52283;49.292;10.572;2023-05-21T07:22:12;13.15;;;9.35;;
65613;SDS011;52283;49.292;10.572;2023-05-21T07:24:40;11.82;;;9.00;;
65613;SDS011;52283;49.292;10.572;2023-05-21T07:27:06;10.10;;;8.00;;
65613;SDS011;52283;49.292;10.572;2023-05-21T07:29:32;12.43;;;8.70;;
65613;SDS011;52283;49.292;10.572;2023-05-21T07:31:59;15.35;;;10.07;;
65613;SDS011;52283;49.292;10.572;2023-05-21T07:34:25;10.75;;;9.10;;
65613;SDS011;52283;49.292;10.572;2023-05-21T07:36:52;11.20;;;9.07;;
65613;SDS011;52283;49.292;10.572;2023-05-21T07:39:18;12.82;;;8.70;;
65613;SDS011;52283;49.292;10.572;2023-05-21T07:41:46;10.82;;;8.55;;
65613;SDS011;52283;49.292;10.572;2023-05-21T07:44:13;12.85;;;8.52;;
65613;SDS011;52283;49.292;10.572;2023-05-21T07:46:39;11.20;;;8.40;;
65613;SDS011;52283;49.292;10.572;2023-05-21T07:49:05;9.70;;;7.90;;
65613;SDS011;52283;49.292;10.572;2023-05-21T07:51:34;10.63;;;8.25;;
65613;SDS011;52283;49.292;10.572;2023-05-21T07:54:01;9.15;;;8.23;;
65613;SDS011;52283;49.292;10.572;2023-05-21T07:56:27;12.50;;;8.15;;
65613;SDS011;52283;49.292;10.572;2023-05-21T07:58:55;10.35;;;8.30;;
65613;SDS011;52283;49.292;10.572;2023-05-21T08:01:21;12.40;;;8.55;;
65613;SDS011;52283;49.292;10.572;2023-05-21T08:03:48;10.38;;;7.53;;
65613;SDS011;52283;49.292;10.572;2023-05-21T08:06:14;11.50;;;8.38;;
65613;SDS011;52283;49.292;10.572;2023-05-21T08:08:41;10.50;;;8.27;;
65613;SDS011;52283;49.292;10.572;2023-05-21T08:11:07;10.23;;;8.15;;
65613;SDS011;52283;49.292;10.572;2023-05-21T08:13:35;8.65;;;7.47;;
65613;SDS011;52283;49.292;10.572;2023-05-21T08:16:03;9.75;;;7.88;;
65613;SDS011;52283;49.292;10.572;2023-05-21T08:18:30;9.52;;;7.82;;
65613;SDS011;52283;49.292;10.572;2023-05-21T08:20:57;9.48;;;7.07;;
65613;SDS011;52283;49.292;10.572;2023-05-21T08:23:24;8.57;;;7.72;;
65613;SDS011;52283;49.292;10.572;2023-05-21T08:25:51;8.23;;;7.25;;
65613;SDS011;52283;49.292;10.572;2023-05-21T08:28:18;9.30;;;7.82;;
65613;SDS011;52283;49.292;10.572;2023-05-21T08:30:44;8.82;;;7.10;;
65613;SDS011;52283;49.292;10.572;2023-05-21T08:33:12;9.45;;;7.65;;
65613;SDS011;52283;49.292;10.572;2023-05-21T08:35:38;9.32;;;7.55;;
65613;SDS011;52283;49.292;10.572;2023-05-21T08:38:05;8.00;;;7.20;;
65613;SDS011;52283;49.292;10.572;2023-05-21T08:40:32;8.23;;;6.90;;
65613;SDS011;52283;49.292;10.572;2023-05-21T08:42:59;11.50;;;7.65;;
65613;SDS011;52283;49.292;10.572;2023-05-21T08:45:26;9.82;;;7.72;;
65613;SDS011;52283;49.292;10.572;2023-05-21T08:48:01;9.63;;;6.65;;
65613;SDS011;52283;49.292;10.572;2023-05-21T08:50:29;9.35;;;7.78;;
65613;SDS011;52283;49.292;10.572;2023-05-21T08:52:56;9.80;;;7.47;;
65613;SDS011;52283;49.292;10.572;2023-05-21T08:55:24;9.30;;;7.63;;
65613;SDS011;52283;49.292;10.572;2023-05-21T08:57:52;7.75;;;7.00;;
65613;SDS011;52283;49.292;10.572;2023-05-21T09:00:19;10.48;;;8.02;;
65613;SDS011;52283;49.292;10.572;2023-05-21T09:02:46;8.40;;;7.47;;
65613;SDS011;52283;49.292;10.572;2023-05-21T09:05:13;9.35;;;7.63;;
65613;SDS011;52283;49.292;10.572;2023-05-21T09:07:45;9.75;;;7.13;;
65613;SDS011;52283;49.292;10.572;2023-05-21T09:10:15;10.43;;;7.15;;
65613;SDS011;52283;49.292;10.572;2023-05-21T09:12:44;9.40;;;7.43;;
65613;SDS011;52283;49.292;10.572;2023-05-21T09:15:12;10.50;;;7.07;;
65613;SDS011;52283;49.292;10.572;2023-05-21T09:17:38;8.02;;;7.22;;
65613;SDS011;52283;49.292;10.572;2023-05-21T09:20:08;9.40;;;7.28;;
65613;SDS011;52283;49.292;10.572;2023-05-21T09:22:39;9.25;;;6.47;;
65613;SDS011;52283;49.292;10.572;2023-05-21T09:25:09;7.15;;;5.88;;
65613;SDS011;52283;49.292;10.572;2023-05-21T09:27:36;9.45;;;7.50;;
65613;SDS011;52283;49.292;10.572;2023-05-21T09:30:03;8.93;;;7.25;;
65613;SDS011;52283;49.292;10.572;2023-05-21T09:32:31;15.30;;;7.47;;
65613;SDS011;52283;49.292;10.572;2023-05-21T09:35:01;7.85;;;6.35;;
65613;SDS011;52283;49.292;10.572;2023-05-21T09:37:30;8.77;;;7.00;;
65613;SDS011;52283;49.292;10.572;2023-05-21T09:42:31;7.13;;;6.43;;
65613;SDS011;52283;49.292;10.572;2023-05-21T09:44:58;7.30;;;6.53;;
65613;SDS011;52283;49.292;10.572;2023-05-21T09:47:24;7.53;;;6.40;;
65613;SDS011;52283;49.292;10.572;2023-05-21T09:49:51;8.15;;;6.40;;
65613;SDS011;52283;49.292;10.572;2023-05-21T09:52:23;6.82;;;5.63;;
65613;SDS011;52283;49.292;10.572;2023-05-21T09:54:52;7.97;;;6.70;;
65613;SDS011;52283;49.292;10.572;2023-05-21T09:57:22;7.05;;;6.35;;
65613;SDS011;52283;49.292;10.572;2023-05-21T09:59:50;7.50;;;6.43;;
65613;SDS011;52283;49.292;10.572;2023-05-21T10:02:18;8.52;;;6.35;;
65613;SDS011;52283;49.292;10.572;2023-05-21T10:04:47;8.20;;;7.03;;
65613;SDS011;52283;49.292;10.572;2023-05-21T10:07:14;13.07;;;6.60;;
65613;SDS011;52283;49.292;10.572;2023-05-21T10:09:43;7.18;;;6.47;;
65613;SDS011;52283;49.292;10.572;2023-05-21T10:12:11;7.43;;;6.25;;
65613;SDS011;52283;49.292;10.572;2023-05-21T10:14:38;7.80;;;6.15;;
65613;SDS011;52283;49.292;10.572;2023-05-21T10:17:09;7.13;;;6.10;;
65613;SDS011;52283;49.292;10.572;2023-05-21T10:19:37;8.27;;;5.70;;
65613;SDS011;52283;49.292;10.572;2023-05-21T10:22:05;8.52;;;6.60;;
65613;SDS011;52283;49.292;10.572;2023-05-21T10:24:32;7.50;;;5.85;;
65613;SDS011;52283;49.292;10.572;2023-05-21T10:26:59;8.13;;;5.90;;
65613;SDS011;52283;49.292;10.572;2023-05-21T10:29:27;8.95;;;7.05;;
65613;SDS011;52283;49.292;10.572;2023-05-21T10:31:56;7.47;;;6.13;;
65613;SDS011;52283;49.292;10.572;2023-05-21T10:34:25;10.00;;;6.40;;
65613;SDS011;52283;49.292;10.572;2023-05-21T10:36:53;10.90;;;8.27;;
65613;SDS011;52283;49.292;10.572;2023-05-21T10:39:21;11.07;;;7.50;;
65613;SDS011;52283;49.292;10.572;2023-05-21T10:41:50;24.40;;;13.60;;
65613;SDS011;52283;49.292;10.572;2023-05-21T10:44:25;19.10;;;13.70;;
65613;SDS011;52283;49.292;10.572;2023-05-21T10:47:07;32.75;;;21.35;;
65613;SDS011;52283;49.292;10.572;2023-05-21T10:49:53;11.27;;;8.10;;
65613;SDS011;52283;49.292;10.572;2023-05-21T10:52:37;11.55;;;8.48;;
65613;SDS011;52283;49.292;10.572;2023-05-21T10:55:16;10.68;;;7.30;;
65613;SDS011;52283;49.292;10.572;2023-05-21T10:58:01;8.13;;;6.90;;
65613;SDS011;52283;49.292;10.572;2023-05-21T11:00:53;8.20;;;7.50;;
65613;SDS011;52283;49.292;10.572;2023-05-21T11:03:20;7.95;;;6.35;;
65613;SDS011;52283;49.292;10.572;2023-05-21T11:05:51;13.23;;;8.50;;
65613;SDS011;52283;49.292;10.572;2023-05-21T11:08:22;7.78;;;6.97;;
65613;SDS011;52283;49.292;10.572;2023-05-21T11:10:50;10.75;;;7.50;;
65613;SDS011;52283;49.292;10.572;2023-05-21T11:13:18;7.38;;;6.63;;
65613;SDS011;52283;49.292;10.572;2023-05-21T11:16:06;9.00;;;6.50;;
65613;SDS011;52283;49.292;10.572;2023-05-21T11:21:27;6.97;;;6.28;;
65613;SDS011;52283;49.292;10.572;2023-05-21T11:23:55;6.47;;;5.88;;
65613;SDS011;52283;49.292;10.572;2023-05-21T11:26:25;8.25;;;6.50;;
65613;SDS011;52283;49.292;10.572;2023-05-21T11:29:04;7.32;;;6.57;;
65613;SDS011;52283;49.292;10.572;2023-05-21T11:31:32;6.80;;;6.10;;
65613;SDS011;52283;49.292;10.572;2023-05-21T11:34:10;5.50;;;5.10;;
65613;SDS011;52283;49.292;10.572;2023-05-21T11:36:39;6.43;;;5.72;;
65613;SDS011;52283;49.292;10.572;2023-05-21T11:39:07;5.95;;;5.40;;
65613;SDS011;52283;49.292;10.572;2023-05-21T11:41:48;7.75;;;5.95;;
65613;SDS011;52283;49.292;10.572;2023-05-21T11:44:15;9.77;;;5.70;;
65613;SDS011;52283;49.292;10.572;2023-05-21T11:46:42;6.28;;;5.68;;
65613;SDS011;52283;49.292;10.572;2023-05-21T11:49:08;9.38;;;5.95;;
65613;SDS011;52283;49.292;10.572;2023-05-21T11:51:35;7.72;;;6.30;;
65613;SDS011;52283;49.292;10.572;2023-05-21T11:54:03;7.60;;;6.05;;
65613;SDS011;52283;49.292;10.572;2023-05-21T11:56:30;6.97;;;6.28;;
65613;SDS011;52283;49.292;10.572;2023-05-21T11:59:00;8.15;;;7.32;;
65613;SDS011;52283;49.292;10.572;2023-05-21T12:01:27;7.60;;;6.60;;
65613;SDS011;52283;49.292;10.572;2023-05-21T12:03:55;10.98;;;6.43;;
65613;SDS011;52283;49.292;10.572;2023-05-21T12:06:24;6.55;;;5.90;;
65613;SDS011;52283;49.292;10.572;2023-05-21T12:08:51;7.38;;;6.32;;
65613;SDS011;52283;49.292;10.572;2023-05-21T12:11:23;7.78;;;7.05;;
65613;SDS011;52283;49.292;10.572;2023-05-21T12:13:50;7.63;;;6.43;;
65613;SDS011;52283;49.292;10.572;2023-05-21T12:16:17;9.90;;;6.97;;
65613;SDS011;52283;49.292;10.572;2023-05-21T12:18:43;7.00;;;6.30;;
65613;SDS011;52283;49.292;10.572;2023-05-21T12:21:10;8.88;;;6.53;;
65613;SDS011;52283;49.292;10.572;2023-05-21T12:23:36;10.05;;;6.50;;
65613;SDS011;52283;49.292;10.572;2023-05-21T12:26:03;7.65;;;6.50;;
65613;SDS011;52283;49.292;10.572;2023-05-21T12:28:31;11.43;;;7.00;;
65613;SDS011;52283;49.292;10.572;2023-05-21T12:30:58;6.63;;;6.03;;
65613;SDS011;52283;49.292;10.572;2023-05-21T12:33:24;6.95;;;6.25;;
65613;SDS011;52283;49.292;10.572;2023-05-21T12:35:59;8.48;;;6.13;;
65613;SDS011;52283;49.292;10.572;2023-05-21T12:38:28;8.10;;;6.65;;
65613;SDS011;52283;49.292;10.572;2023-05-21T12:40:56;6.40;;;5.70;;
65613;SDS011;52283;49.292;10.572;2023-05-21T12:43:30;10.13;;;5.43;;
65613;SDS011;52283;49.292;10.572;2023-05-21T12:45:58;8.32;;;5.47;;
65613;SDS011;52283;49.292;10.572;2023-05-21T12:48:25;7.10;;;5.95;;
65613;SDS011;52283;49.292;10.572;2023-05-21T12:50:51;7.10;;;6.40;;
65613;SDS011;52283;49.292;10.572;2023-05-21T12:53:18;6.93;;;6.22;;
65613;SDS011;52283;49.292;10.572;2023-05-21T12:55:44;6.60;;;5.57;;
65613;SDS011;52283;49.292;10.572;2023-05-21T12:58:12;7.20;;;5.60;;
65613;SDS011;52283;49.292;10.572;2023-05-21T13:00:41;10.63;;;5.80;;
65613;SDS011;52283;49.292;10.572;2023-05-21T13:03:09;9.18;;;5.82;;
65613;SDS011;52283;49.292;10.572;2023-05-21T13:05:38;11.63;;;5.82;;
65613;SDS011;52283;49.292;10.572;2023-05-21T13:08:05;9.20;;;6.38;;
65613;SDS011;52283;49.292;10.572;2023-05-21T13:10:34;12.30;;;6.43;;
65613;SDS011;52283;49.292;10.572;2023-05-21T13:13:00;6.50;;;5.40;;
65613;SDS011;52283;49.292;10.572;2023-05-21T13:15:27;9.73;;;5.97;;
65613;SDS011;52283;49.292;10.572;2023-05-21T13:17:56;7.20;;;6.50;;
65613;SDS011;52283;49.292;10.572;2023-05-21T13:20:22;6.78;;;5.50;;
65613;SDS011;52283;49.292;10.572;2023-05-21T13:22:51;6.15;;;5.28;;
65613;SDS011;52283;49.292;10.572;2023-05-21T13:25:18;6.35;;;5.85;;
65613;SDS011;52283;49.292;10.572;2023-05-21T13:27:46;8.10;;;6.43;;
65613;SDS011;52283;49.292;10.572;2023-05-21T13:30:13;7.03;;;6.32;;
65613;SDS011;52283;49.292;10.572;2023-05-21T13:32:40;7.75;;;6.00;;
65613;SDS011;52283;49.292;10.572;2023-05-21T13:35:09;6.05;;;5.45;;
65613;SDS011;52283;49.292;10.572;2023-05-21T13:37:37;9.88;;;6.30;;
65613;SDS011;52283;49.292;10.572;2023-05-21T13:40:07;7.00;;;6.30;;
65613;SDS011;52283;49.292;10.572;2023-05-21T13:42:35;9.30;;;5.60;;
65613;SDS011;52283;49.292;10.572;2023-05-21T13:45:02;8.90;;;6.57;;
65613;SDS011;52283;49.292;10.572;2023-05-21T13:47:29;7.20;;;6.55;;
65613;SDS011;52283;49.292;10.572;2023-05-21T13:49:57;7.18;;;6.10;;
65613;SDS011;52283;49.292;10.572;2023-05-21T13:52:25;8.23;;;6.95;;
65613;SDS011;52283;49.292;10.572;2023-05-21T13:54:51;11.10;;;6.45;;
65613;SDS011;52283;49.292;10.572;2023-05-21T13:57:18;6.90;;;6.05;;
65613;SDS011;52283;49.292;10.572;2023-05-21T13:59:45;10.45;;;6.18;;
65613;SDS011;52283;49.292;10.572;2023-05-21T14:02:11;10.18;;;6.00;;
65613;SDS011;52283;49.292;10.572;2023-05-21T14:04:38;6.85;;;5.40;;
65613;SDS011;52283;49.292;10.572;2023-05-21T14:07:05;6.65;;;5.10;;
65613;SDS011;52283;49.292;10.572;2023-05-21T14:09:33;6.78;;;5.50;;
65613;SDS011;52283;49.292;10.572;2023-05-21T14:11:59;6.72;;;6.00;;
65613;SDS011;52283;49.292;10.572;2023-05-21T14:14:26;6.85;;;4.80;;
65613;SDS011;52283;49.292;10.572;2023-05-21T14:16:52;6.20;;;5.05;;
65613;SDS011;52283;49.292;10.572;2023-05-21T14:19:19;6.00;;;5.38;;
65613;SDS011;52283;49.292;10.572;2023-05-21T14:21:45;5.35;;;4.85;;
65613;SDS011;52283;49.292;10.572;2023-05-21T14:24:12;5.55;;;4.57;;
65613;SDS011;52283;49.292;10.572;2023-05-21T14:26:40;4.95;;;4.55;;
65613;SDS011;52283;49.292;10.572;2023-05-21T14:29:06;6.07;;;4.93;;
65613;SDS011;52283;49.292;10.572;2023-05-21T14:31:33;5.28;;;4.75;;
65613;SDS011;52283;49.292;10.572;2023-05-21T14:34:00;5.75;;;5.25;;